Nordlys — YJTS2 — position and weather

sailwx.info

Track history (hours):
 
Tides and Currents Weather Stations Pressure Air Temp Water Temp Dewpoint Dewpoint Depression Visibility Wind Speed Wind Dir Waves Ship Positions

Nordlys

Ship's website: http://fairtransport.eu/category/nordlys/

Last reported at 2018-Jun-21 13:21 UTC. Time now 2018-Jun-21 20:09 UTC.
Position N 54°06' E 012°08'.

Length 20 m; draft 2.7 m.

MMSI: 577228000.

Date/timePositionNaut miles runAvg speedWind from/ knotsBaromVisibWave heightAir tempDewpointWater temp
2018-Jun-21 13:21N 54°06' E 012°08'0 0.0
2018-Jun-21 12:58N 54°06' E 012°08'0 0.3
2018-Jun-21 12:15N 54°06' E 012°08'1 3.8
2018-Jun-21 12:00N 54°06' E 012°07'2 4.9
2018-Jun-21 11:30N 54°08' E 012°06'2 4.0
2018-Jun-21 11:00N 54°10' E 012°06'0 1.0
2018-Jun-21 10:30N 54°11' E 012°06'8 5.1
2018-Jun-21 08:58N 54°18' E 012°08'2 5.0
2018-Jun-21 08:30N 54°20' E 012°11'54 3.6
2018-Jun-20 17:33N 55°12' E 012°39'0 2.8
2018-Jun-20 17:30N 55°12' E 012°39'2 1.0
2018-Jun-20 15:09N 55°12' E 012°43'1 3.9
2018-Jun-20 15:00N 55°13' E 012°43'2 3.4
2018-Jun-20 14:26N 55°14' E 012°41'2 3.5
2018-Jun-20 13:57N 55°16' E 012°39'2 3.2
2018-Jun-20 13:29N 55°17' E 012°37'1 2.7
2018-Jun-20 12:57N 55°18' E 012°35'2 4.0
2018-Jun-20 12:21N 55°20' E 012°32'2 4.3
2018-Jun-20 11:56N 55°21' E 012°30'2 5.1
2018-Jun-20 11:30N 55°23' E 012°28'3 5.5
2018-Jun-20 10:55N 55°26' E 012°26'2 5.4
2018-Jun-20 10:30N 55°28' E 012°24'2 4.3
2018-Jun-20 10:00N 55°30' E 012°23'2 4.6
2018-Jun-20 09:30N 55°30' E 012°27'2 4.3
2018-Jun-20 09:00N 55°30' E 012°31'2 4.7
2018-Jun-20 08:30N 55°30' E 012°35'3 5.1
2018-Jun-20 07:59N 55°31' E 012°39'3 5.3
2018-Jun-20 07:30N 55°30' E 012°44'1 2.5
2018-Jun-20 07:00N 55°32' E 012°44'3 5.0
2018-Jun-20 06:29N 55°34' E 012°43'2 4.2
2018-Jun-20 06:00N 55°36' E 012°43'3 5.0
2018-Jun-20 05:30N 55°39' E 012°42'2 4.7
2018-Jun-20 05:00N 55°41' E 012°41'2 3.9
2018-Jun-20 04:30N 55°43' E 012°42'2 4.1
2018-Jun-20 04:00N 55°45' E 012°41'2 4.3
2018-Jun-20 03:30N 55°47' E 012°40'2 3.9
2018-Jun-20 03:00N 55°49' E 012°39'2 4.3
2018-Jun-20 02:30N 55°51' E 012°38'2 4.8
2018-Jun-20 02:00N 55°53' E 012°37'3 6.4
2018-Jun-20 01:30N 55°56' E 012°37'2 4.4
2018-Jun-20 01:00N 55°59' E 012°37'2 3.6
2018-Jun-20 00:30N 56°00' E 012°38'2 4.0
2018-Jun-20 00:00N 56°02' E 012°38'  
2018-Jun-16 04:57N 52°36' E 004°20'3 3.5
2018-Jun-16 04:13N 52°34' E 004°21'1 4.0
2018-Jun-16 03:59N 52°33' E 004°21'2 3.5
2018-Jun-16 03:30N 52°31' E 004°21'2 2.9
2018-Jun-16 02:57N 52°30' E 004°20'1 2.4
2018-Jun-16 02:29N 52°28' E 004°20'1 1.4
2018-Jun-16 02:00N 52°28' E 004°20'0 0.9
2018-Jun-16 01:30N 52°27' E 004°20'0 0.9
2018-Jun-16 00:59N 52°27' E 004°20'1 1.9
2018-Jun-16 00:30N 52°26' E 004°20'2 3.4
2018-Jun-16 00:00N 52°24' E 004°20'1 1.7
2018-Jun-15 23:30N 52°23' E 004°21'0 0.9
2018-Jun-15 23:00N 52°24' E 004°21'0 0.9
2018-Jun-15 22:29N 52°24' E 004°22'1 1.3
2018-Jun-15 22:00N 52°25' E 004°22'1 1.5
2018-Jun-15 21:30N 52°25' E 004°22'1 1.8
2018-Jun-15 21:00N 52°26' E 004°22'1 1.6
2018-Jun-15 20:30N 52°27' E 004°21'1 1.5
2018-Jun-15 20:00N 52°28' E 004°20'1 1.5
2018-Jun-15 19:30N 52°28' E 004°19'1 1.1
2018-Jun-15 19:00N 52°28' E 004°18'1 2.2
2018-Jun-15 18:29N 52°27' E 004°19'1 3.0
2018-Jun-15 18:00N 52°25' E 004°20'2 3.6
2018-Jun-15 17:24N 52°24' E 004°22'1 3.6
2018-Jun-15 16:59N 52°22' E 004°23'2 3.8
2018-Jun-15 16:30N 52°21' E 004°25'2 3.4
2018-Jun-15 16:00N 52°20' E 004°27'3 5.0
2018-Jun-15 15:30N 52°18' E 004°25'3 5.5
2018-Jun-15 15:00N 52°16' E 004°22'3 5.7
2018-Jun-15 14:30N 52°13' E 004°20'2 4.6
2018-Jun-15 14:00N 52°12' E 004°17'2 3.8
2018-Jun-15 13:30N 52°10' E 004°16'2 3.3
2018-Jun-15 13:01N 52°09' E 004°15'1 2.1
2018-Jun-15 12:31N 52°08' E 004°14'0 0.9
2018-Jun-15 12:00N 52°07' E 004°14'0 0.9
2018-Jun-15 11:30N 52°07' E 004°15'1 0.0
2018-Jun-13 11:28N 52°06' E 004°16'0 0.1
2018-Jun-13 11:00N 52°06' E 004°16'2 3.6
2018-Jun-13 10:31N 52°06' E 004°13'2 4.9
2018-Jun-13 10:01N 52°06' E 004°09'2 4.7
2018-Jun-13 09:30N 52°07' E 004°05'2 3.8
2018-Jun-13 09:00N 52°07' E 004°02'1 2.7
2018-Jun-13 08:30N 52°07' E 004°00'2 3.0
2018-Jun-13 08:00N 52°06' E 003°58'2 4.0
2018-Jun-13 07:30N 52°06' E 003°54'1 2.7
2018-Jun-13 07:00N 52°06' E 003°52'2 3.0
2018-Jun-13 06:30N 52°05' E 003°50'2 3.6
2018-Jun-13 06:00N 52°04' E 003°47'2 3.3
2018-Jun-13 05:30N 52°04' E 003°45'2 3.8
2018-Jun-13 04:53N 52°02' E 003°42'2 4.2
2018-Jun-13 04:27N 52°01' E 003°39'2 4.7
2018-Jun-13 03:56N 52°00' E 003°36'50 3.1
2018-Jun-12 11:32N 51°32' E 002°28'1 4.8
2018-Jun-12 11:24N 51°32' E 002°28'2 4.2
2018-Jun-12 10:54N 51°30' E 002°30'2 4.1
2018-Jun-12 10:27N 51°28' E 002°31'1 3.4
2018-Jun-12 10:00N 51°27' E 002°32'2 3.1
2018-Jun-12 09:29N 51°27' E 002°30'3 4.7
2018-Jun-12 08:55N 51°28' E 002°25'2 4.3
2018-Jun-12 08:30N 51°28' E 002°23'0 0.9
2018-Jun-12 07:58N 51°29' E 002°22'2 3.8
2018-Jun-12 07:28N 51°27' E 002°24'2 3.9
2018-Jun-12 06:59N 51°26' E 002°27'2 3.1
2018-Jun-12 06:30N 51°25' E 002°29'0 0.9
2018-Jun-12 05:58N 51°26' E 002°29'1 3.0
2018-Jun-12 05:29N 51°27' E 002°27'2 3.6
2018-Jun-12 04:55N 51°28' E 002°24'1 3.4
2018-Jun-12 04:30N 51°29' E 002°23'2 3.0
2018-Jun-12 03:59N 51°30' E 002°20'2 3.4
2018-Jun-12 03:25N 51°30' E 002°18'1 3.6
2018-Jun-12 03:00N 51°31' E 002°15'2 3.0
2018-Jun-12 02:12N 51°31' E 002°12'1 2.3
2018-Jun-12 01:59N 51°31' E 002°11'5 2.6
2018-Jun-12 00:01N 51°26' E 002°08'0 4.3
2018-Jun-11 23:58N 51°26' E 002°08'2 3.5
2018-Jun-11 23:26N 51°24' E 002°08'2 3.8
2018-Jun-11 22:59N 51°22' E 002°07'1 2.3
2018-Jun-11 22:30N 51°21' E 002°07'2 4.4
2018-Jun-11 22:00N 51°22' E 002°03'2 4.2
2018-Jun-11 21:29N 51°22' E 001°60'2 3.9
2018-Jun-11 20:59N 51°22' E 001°57'2 3.8
2018-Jun-11 20:30N 51°23' E 001°54'2 3.7
2018-Jun-11 19:54N 51°23' E 001°51'2 4.5
2018-Jun-11 19:30N 51°24' E 001°48'2 4.7
2018-Jun-11 19:00N 51°26' E 001°45'2 3.9
2018-Jun-11 18:30N 51°27' E 001°43'1 1.1
2018-Jun-11 18:00N 51°28' E 001°44'1 2.8
2018-Jun-11 17:30N 51°28' E 001°46'1 2.8
2018-Jun-11 16:58N 51°27' E 001°48'2 3.5
2018-Jun-11 16:22N 51°26' E 001°51'1 3.2
2018-Jun-11 15:56N 51°25' E 001°53'2 3.8
2018-Jun-11 15:30N 51°24' E 001°55'2 3.6
2018-Jun-11 14:59N 51°23' E 001°57'2 3.7
2018-Jun-11 14:28N 51°21' E 001°59'2 3.8
2018-Jun-11 14:00N 51°20' E 002°01'2 4.2
2018-Jun-11 13:29N 51°18' E 002°03'  
Track history (hours):
 
Tides and Currents Weather Stations Pressure Air Temp Water Temp Dewpoint Dewpoint Depression Visibility Wind Speed Wind Dir Waves Ship Positions

Nordlys

Ship's website: http://fairtransport.eu/category/nordlys/

Last reported at 2018-Jun-21 13:21 UTC. Time now 2018-Jun-21 20:09 UTC.
Position N 54°06' E 012°08'.

Length 20 m; draft 2.7 m.

MMSI: 577228000.

Date/timePositionNaut miles runAvg speedWind from/ knotsBaromVisibWave heightAir tempDewpointWater temp
2018-Jun-21 13:21N 54°06' E 012°08'0 0.0
2018-Jun-21 12:58N 54°06' E 012°08'0 0.3
2018-Jun-21 12:15N 54°06' E 012°08'1 3.8
2018-Jun-21 12:00N 54°06' E 012°07'2 4.9
2018-Jun-21 11:30N 54°08' E 012°06'2 4.0
2018-Jun-21 11:00N 54°10' E 012°06'0 1.0
2018-Jun-21 10:30N 54°11' E 012°06'8 5.1
2018-Jun-21 08:58N 54°18' E 012°08'2 5.0
2018-Jun-21 08:30N 54°20' E 012°11'54 3.6
2018-Jun-20 17:33N 55°12' E 012°39'0 2.8
2018-Jun-20 17:30N 55°12' E 012°39'2 1.0
2018-Jun-20 15:09N 55°12' E 012°43'1 3.9
2018-Jun-20 15:00N 55°13' E 012°43'2 3.4
2018-Jun-20 14:26N 55°14' E 012°41'2 3.5
2018-Jun-20 13:57N 55°16' E 012°39'2 3.2
2018-Jun-20 13:29N 55°17' E 012°37'1 2.7
2018-Jun-20 12:57N 55°18' E 012°35'2 4.0
2018-Jun-20 12:21N 55°20' E 012°32'2 4.3
2018-Jun-20 11:56N 55°21' E 012°30'2 5.1
2018-Jun-20 11:30N 55°23' E 012°28'3 5.5
2018-Jun-20 10:55N 55°26' E 012°26'2 5.4
2018-Jun-20 10:30N 55°28' E 012°24'2 4.3
2018-Jun-20 10:00N 55°30' E 012°23'2 4.6
2018-Jun-20 09:30N 55°30' E 012°27'2 4.3
2018-Jun-20 09:00N 55°30' E 012°31'2 4.7
2018-Jun-20 08:30N 55°30' E 012°35'3 5.1
2018-Jun-20 07:59N 55°31' E 012°39'3 5.3
2018-Jun-20 07:30N 55°30' E 012°44'1 2.5
2018-Jun-20 07:00N 55°32' E 012°44'3 5.0
2018-Jun-20 06:29N 55°34' E 012°43'2 4.2
2018-Jun-20 06:00N 55°36' E 012°43'3 5.0
2018-Jun-20 05:30N 55°39' E 012°42'2 4.7
2018-Jun-20 05:00N 55°41' E 012°41'2 3.9
2018-Jun-20 04:30N 55°43' E 012°42'2 4.1
2018-Jun-20 04:00N 55°45' E 012°41'2 4.3
2018-Jun-20 03:30N 55°47' E 012°40'2 3.9
2018-Jun-20 03:00N 55°49' E 012°39'2 4.3
2018-Jun-20 02:30N 55°51' E 012°38'2 4.8
2018-Jun-20 02:00N 55°53' E 012°37'3 6.4
2018-Jun-20 01:30N 55°56' E 012°37'2 4.4
2018-Jun-20 01:00N 55°59' E 012°37'2 3.6
2018-Jun-20 00:30N 56°00' E 012°38'2 4.0
2018-Jun-20 00:00N 56°02' E 012°38'  
2018-Jun-16 04:57N 52°36' E 004°20'3 3.5
2018-Jun-16 04:13N 52°34' E 004°21'1 4.0
2018-Jun-16 03:59N 52°33' E 004°21'2 3.5
2018-Jun-16 03:30N 52°31' E 004°21'2 2.9
2018-Jun-16 02:57N 52°30' E 004°20'1 2.4
2018-Jun-16 02:29N 52°28' E 004°20'1 1.4
2018-Jun-16 02:00N 52°28' E 004°20'0 0.9
2018-Jun-16 01:30N 52°27' E 004°20'0 0.9
2018-Jun-16 00:59N 52°27' E 004°20'1 1.9
2018-Jun-16 00:30N 52°26' E 004°20'2 3.4
2018-Jun-16 00:00N 52°24' E 004°20'1 1.7
2018-Jun-15 23:30N 52°23' E 004°21'0 0.9
2018-Jun-15 23:00N 52°24' E 004°21'0 0.9
2018-Jun-15 22:29N 52°24' E 004°22'1 1.3
2018-Jun-15 22:00N 52°25' E 004°22'1 1.5
2018-Jun-15 21:30N 52°25' E 004°22'1 1.8
2018-Jun-15 21:00N 52°26' E 004°22'1 1.6
2018-Jun-15 20:30N 52°27' E 004°21'1 1.5
2018-Jun-15 20:00N 52°28' E 004°20'1 1.5
2018-Jun-15 19:30N 52°28' E 004°19'1 1.1
2018-Jun-15 19:00N 52°28' E 004°18'1 2.2
2018-Jun-15 18:29N 52°27' E 004°19'1 3.0
2018-Jun-15 18:00N 52°25' E 004°20'2 3.6
2018-Jun-15 17:24N 52°24' E 004°22'1 3.6
2018-Jun-15 16:59N 52°22' E 004°23'2 3.8
2018-Jun-15 16:30N 52°21' E 004°25'2 3.4
2018-Jun-15 16:00N 52°20' E 004°27'3 5.0
2018-Jun-15 15:30N 52°18' E 004°25'3 5.5
2018-Jun-15 15:00N 52°16' E 004°22'3 5.7
2018-Jun-15 14:30N 52°13' E 004°20'2 4.6
2018-Jun-15 14:00N 52°12' E 004°17'2 3.8
2018-Jun-15 13:30N 52°10' E 004°16'2 3.3
2018-Jun-15 13:01N 52°09' E 004°15'1 2.1
2018-Jun-15 12:31N 52°08' E 004°14'0 0.9
2018-Jun-15 12:00N 52°07' E 004°14'0 0.9
2018-Jun-15 11:30N 52°07' E 004°15'1 0.0
2018-Jun-13 11:28N 52°06' E 004°16'0 0.1
2018-Jun-13 11:00N 52°06' E 004°16'2 3.6
2018-Jun-13 10:31N 52°06' E 004°13'2 4.9
2018-Jun-13 10:01N 52°06' E 004°09'2 4.7
2018-Jun-13 09:30N 52°07' E 004°05'2 3.8
2018-Jun-13 09:00N 52°07' E 004°02'1 2.7
2018-Jun-13 08:30N 52°07' E 004°00'2 3.0
2018-Jun-13 08:00N 52°06' E 003°58'2 4.0
2018-Jun-13 07:30N 52°06' E 003°54'1 2.7
2018-Jun-13 07:00N 52°06' E 003°52'2 3.0
2018-Jun-13 06:30N 52°05' E 003°50'2 3.6
2018-Jun-13 06:00N 52°04' E 003°47'2 3.3
2018-Jun-13 05:30N 52°04' E 003°45'2 3.8
2018-Jun-13 04:53N 52°02' E 003°42'2 4.2
2018-Jun-13 04:27N 52°01' E 003°39'2 4.7
2018-Jun-13 03:56N 52°00' E 003°36'50 3.1
2018-Jun-12 11:32N 51°32' E 002°28'1 4.8
2018-Jun-12 11:24N 51°32' E 002°28'2 4.2
2018-Jun-12 10:54N 51°30' E 002°30'2 4.1
2018-Jun-12 10:27N 51°28' E 002°31'1 3.4
2018-Jun-12 10:00N 51°27' E 002°32'2 3.1
2018-Jun-12 09:29N 51°27' E 002°30'3 4.7
2018-Jun-12 08:55N 51°28' E 002°25'2 4.3
2018-Jun-12 08:30N 51°28' E 002°23'0 0.9
2018-Jun-12 07:58N 51°29' E 002°22'2 3.8
2018-Jun-12 07:28N 51°27' E 002°24'2 3.9
2018-Jun-12 06:59N 51°26' E 002°27'2 3.1
2018-Jun-12 06:30N 51°25' E 002°29'0 0.9
2018-Jun-12 05:58N 51°26' E 002°29'1 3.0
2018-Jun-12 05:29N 51°27' E 002°27'2 3.6
2018-Jun-12 04:55N 51°28' E 002°24'1 3.4
2018-Jun-12 04:30N 51°29' E 002°23'2 3.0
2018-Jun-12 03:59N 51°30' E 002°20'2 3.4
2018-Jun-12 03:25N 51°30' E 002°18'1 3.6
2018-Jun-12 03:00N 51°31' E 002°15'2 3.0
2018-Jun-12 02:12N 51°31' E 002°12'1 2.3
2018-Jun-12 01:59N 51°31' E 002°11'5 2.6
2018-Jun-12 00:01N 51°26' E 002°08'0 4.3
2018-Jun-11 23:58N 51°26' E 002°08'2 3.5
2018-Jun-11 23:26N 51°24' E 002°08'2 3.8
2018-Jun-11 22:59N 51°22' E 002°07'1 2.3
2018-Jun-11 22:30N 51°21' E 002°07'2 4.4
2018-Jun-11 22:00N 51°22' E 002°03'2 4.2
2018-Jun-11 21:29N 51°22' E 001°60'2 3.9
2018-Jun-11 20:59N 51°22' E 001°57'2 3.8
2018-Jun-11 20:30N 51°23' E 001°54'2 3.7
2018-Jun-11 19:54N 51°23' E 001°51'2 4.5
2018-Jun-11 19:30N 51°24' E 001°48'2 4.7
2018-Jun-11 19:00N 51°26' E 001°45'2 3.9
2018-Jun-11 18:30N 51°27' E 001°43'1 1.1
2018-Jun-11 18:00N 51°28' E 001°44'1 2.8
2018-Jun-11 17:30N 51°28' E 001°46'1 2.8
2018-Jun-11 16:58N 51°27' E 001°48'2 3.5
2018-Jun-11 16:22N 51°26' E 001°51'1 3.2
2018-Jun-11 15:56N 51°25' E 001°53'2 3.8
2018-Jun-11 15:30N 51°24' E 001°55'2 3.6
2018-Jun-11 14:59N 51°23' E 001°57'2 3.7
2018-Jun-11 14:28N 51°21' E 001°59'2 3.8
2018-Jun-11 14:00N 51°20' E 002°01'2 4.2
2018-Jun-11 13:29N 51°18' E 002°03'  

Dump ship's entire track history